sensor_id;sensor_type;location;lat;lon;timestamp;temperature;humidity
14749;DHT22;7466;53.574;9.976;2024-01-30T00:01:15;5.60;99.90
14749;DHT22;7466;53.574;9.976;2024-01-30T00:03:42;5.60;99.90
14749;DHT22;7466;53.574;9.976;2024-01-30T00:06:09;5.60;99.90
14749;DHT22;7466;53.574;9.976;2024-01-30T00:08:36;5.70;99.90
14749;DHT22;7466;53.574;9.976;2024-01-30T00:11:03;5.70;99.90
14749;DHT22;7466;53.574;9.976;2024-01-30T00:13:31;5.70;99.90
14749;DHT22;7466;53.574;9.976;2024-01-30T00:15:58;5.70;99.90
14749;DHT22;7466;53.574;9.976;2024-01-30T00:18:24;5.60;99.90
14749;DHT22;7466;53.574;9.976;2024-01-30T00:20:51;5.70;99.90
14749;DHT22;7466;53.574;9.976;2024-01-30T00:23:18;5.60;99.90
14749;DHT22;7466;53.574;9.976;2024-01-30T00:25:45;5.60;99.90
14749;DHT22;7466;53.574;9.976;2024-01-30T00:28:12;5.60;99.90
14749;DHT22;7466;53.574;9.976;2024-01-30T00:30:40;5.50;99.90
14749;DHT22;7466;53.574;9.976;2024-01-30T00:33:08;5.50;99.90
14749;DHT22;7466;53.574;9.976;2024-01-30T00:35:35;5.50;99.90
14749;DHT22;7466;53.574;9.976;2024-01-30T00:38:02;5.50;99.90
14749;DHT22;7466;53.574;9.976;2024-01-30T00:40:29;5.40;99.90
14749;DHT22;7466;53.574;9.976;2024-01-30T00:42:55;5.50;99.90
14749;DHT22;7466;53.574;9.976;2024-01-30T00:45:22;5.40;99.90
14749;DHT22;7466;53.574;9.976;2024-01-30T00:47:50;5.40;99.90
14749;DHT22;7466;53.574;9.976;2024-01-30T00:50:17;5.40;99.90
14749;DHT22;7466;53.574;9.976;2024-01-30T00:52:44;5.40;99.90
14749;DHT22;7466;53.574;9.976;2024-01-30T00:55:11;5.30;99.90
14749;DHT22;7466;53.574;9.976;2024-01-30T00:57:38;5.30;99.90
14749;DHT22;7466;53.574;9.976;2024-01-30T01:00:06;5.30;99.90
14749;DHT22;7466;53.574;9.976;2024-01-30T01:02:35;5.30;99.90
14749;DHT22;7466;53.574;9.976;2024-01-30T01:05:03;5.20;99.90
14749;DHT22;7466;53.574;9.976;2024-01-30T01:07:30;5.20;99.90
14749;DHT22;7466;53.574;9.976;2024-01-30T01:09:57;5.20;99.90
14749;DHT22;7466;53.574;9.976;2024-01-30T01:12:23;5.20;99.90
14749;DHT22;7466;53.574;9.976;2024-01-30T01:14:50;5.10;99.90
14749;DHT22;7466;53.574;9.976;2024-01-30T01:17:17;5.10;99.90
14749;DHT22;7466;53.574;9.976;2024-01-30T01:19:44;5.10;99.90
14749;DHT22;7466;53.574;9.976;2024-01-30T01:22:12;5.10;99.90
14749;DHT22;7466;53.574;9.976;2024-01-30T01:24:39;5.10;99.90
14749;DHT22;7466;53.574;9.976;2024-01-30T01:27:05;5.10;99.90
14749;DHT22;7466;53.574;9.976;2024-01-30T01:29:34;5.10;99.90
14749;DHT22;7466;53.574;9.976;2024-01-30T01:32:00;5.10;99.90
14749;DHT22;7466;53.574;9.976;2024-01-30T01:34:27;5.20;99.90
14749;DHT22;7466;53.574;9.976;2024-01-30T01:36:54;5.10;99.90
14749;DHT22;7466;53.574;9.976;2024-01-30T01:39:23;5.10;99.90
14749;DHT22;7466;53.574;9.976;2024-01-30T01:41:50;5.10;99.90
14749;DHT22;7466;53.574;9.976;2024-01-30T01:44:17;5.10;99.90
14749;DHT22;7466;53.574;9.976;2024-01-30T01:46:44;5.10;99.90
14749;DHT22;7466;53.574;9.976;2024-01-30T01:49:11;5.10;99.90
14749;DHT22;7466;53.574;9.976;2024-01-30T01:51:39;5.10;99.90
14749;DHT22;7466;53.574;9.976;2024-01-30T01:54:07;5.10;99.90
14749;DHT22;7466;53.574;9.976;2024-01-30T01:56:35;5.10;99.90
14749;DHT22;7466;53.574;9.976;2024-01-30T01:59:05;5.10;99.90
14749;DHT22;7466;53.574;9.976;2024-01-30T02:01:33;5.10;99.90
14749;DHT22;7466;53.574;9.976;2024-01-30T02:04:00;5.20;99.90
14749;DHT22;7466;53.574;9.976;2024-01-30T02:06:27;5.20;99.90
14749;DHT22;7466;53.574;9.976;2024-01-30T02:08:54;5.20;99.90
14749;DHT22;7466;53.574;9.976;2024-01-30T02:11:22;5.20;99.90
14749;DHT22;7466;53.574;9.976;2024-01-30T02:13:50;5.30;99.90
14749;DHT22;7466;53.574;9.976;2024-01-30T02:16:17;5.30;99.90
14749;DHT22;7466;53.574;9.976;2024-01-30T02:18:44;5.30;99.90
14749;DHT22;7466;53.574;9.976;2024-01-30T02:21:15;5.30;99.90
14749;DHT22;7466;53.574;9.976;2024-01-30T02:23:43;5.30;99.90
14749;DHT22;7466;53.574;9.976;2024-01-30T02:26:10;5.30;99.90
14749;DHT22;7466;53.574;9.976;2024-01-30T02:28:37;5.30;99.90
14749;DHT22;7466;53.574;9.976;2024-01-30T02:31:04;5.30;99.90
14749;DHT22;7466;53.574;9.976;2024-01-30T02:33:31;5.30;99.90
14749;DHT22;7466;53.574;9.976;2024-01-30T02:35:58;5.30;99.90
14749;DHT22;7466;53.574;9.976;2024-01-30T02:38:28;5.30;99.90
14749;DHT22;7466;53.574;9.976;2024-01-30T02:40:54;5.20;99.90
14749;DHT22;7466;53.574;9.976;2024-01-30T02:43:25;5.30;99.90
14749;DHT22;7466;53.574;9.976;2024-01-30T02:45:53;5.30;99.90
14749;DHT22;7466;53.574;9.976;2024-01-30T02:48:20;5.20;99.90
14749;DHT22;7466;53.574;9.976;2024-01-30T02:50:47;5.20;99.90
14749;DHT22;7466;53.574;9.976;2024-01-30T02:53:14;5.30;99.90
14749;DHT22;7466;53.574;9.976;2024-01-30T02:55:42;5.20;99.90
14749;DHT22;7466;53.574;9.976;2024-01-30T02:58:09;5.20;99.90
14749;DHT22;7466;53.574;9.976;2024-01-30T03:00:35;5.20;99.90
14749;DHT22;7466;53.574;9.976;2024-01-30T03:03:03;5.20;99.90
14749;DHT22;7466;53.574;9.976;2024-01-30T03:05:29;5.20;99.90
14749;DHT22;7466;53.574;9.976;2024-01-30T03:07:56;5.30;99.90
14749;DHT22;7466;53.574;9.976;2024-01-30T03:10:23;5.20;99.90
14749;DHT22;7466;53.574;9.976;2024-01-30T03:12:51;5.20;99.90
14749;DHT22;7466;53.574;9.976;2024-01-30T03:15:18;5.20;99.90
14749;DHT22;7466;53.574;9.976;2024-01-30T03:17:44;5.20;99.90
14749;DHT22;7466;53.574;9.976;2024-01-30T03:20:11;5.10;99.90
14749;DHT22;7466;53.574;9.976;2024-01-30T03:22:38;5.10;99.90
14749;DHT22;7466;53.574;9.976;2024-01-30T03:25:05;5.10;99.90
14749;DHT22;7466;53.574;9.976;2024-01-30T03:27:32;5.00;99.90
14749;DHT22;7466;53.574;9.976;2024-01-30T03:30:01;5.10;99.90
14749;DHT22;7466;53.574;9.976;2024-01-30T03:32:27;5.00;99.90
14749;DHT22;7466;53.574;9.976;2024-01-30T03:34:54;4.90;99.90
14749;DHT22;7466;53.574;9.976;2024-01-30T03:37:21;4.90;99.90
14749;DHT22;7466;53.574;9.976;2024-01-30T03:39:48;4.90;99.90
14749;DHT22;7466;53.574;9.976;2024-01-30T03:42:14;4.90;99.90
14749;DHT22;7466;53.574;9.976;2024-01-30T03:44:41;4.90;99.90
14749;DHT22;7466;53.574;9.976;2024-01-30T03:47:10;4.90;99.90
14749;DHT22;7466;53.574;9.976;2024-01-30T03:49:37;4.90;99.90
14749;DHT22;7466;53.574;9.976;2024-01-30T03:52:04;4.90;99.90
14749;DHT22;7466;53.574;9.976;2024-01-30T03:54:30;4.90;99.90
14749;DHT22;7466;53.574;9.976;2024-01-30T03:56:57;4.90;99.90
14749;DHT22;7466;53.574;9.976;2024-01-30T03:59:24;4.90;99.90
14749;DHT22;7466;53.574;9.976;2024-01-30T04:01:51;4.90;99.90
14749;DHT22;7466;53.574;9.976;2024-01-30T04:04:19;4.90;99.90
14749;DHT22;7466;53.574;9.976;2024-01-30T04:06:46;4.80;99.90
14749;DHT22;7466;53.574;9.976;2024-01-30T04:09:13;4.80;99.90
14749;DHT22;7466;53.574;9.976;2024-01-30T04:11:40;4.80;99.90
14749;DHT22;7466;53.574;9.976;2024-01-30T04:14:07;4.80;99.90
14749;DHT22;7466;53.574;9.976;2024-01-30T04:16:34;4.70;99.90
14749;DHT22;7466;53.574;9.976;2024-01-30T04:19:02;4.70;99.90
14749;DHT22;7466;53.574;9.976;2024-01-30T04:21:32;4.70;99.90
14749;DHT22;7466;53.574;9.976;2024-01-30T04:23:58;4.70;99.90
14749;DHT22;7466;53.574;9.976;2024-01-30T04:26:25;4.70;99.90
14749;DHT22;7466;53.574;9.976;2024-01-30T04:28:52;4.60;99.90
14749;DHT22;7466;53.574;9.976;2024-01-30T04:31:19;4.60;99.90
14749;DHT22;7466;53.574;9.976;2024-01-30T04:33:45;4.60;99.90
14749;DHT22;7466;53.574;9.976;2024-01-30T04:36:12;4.60;99.90
14749;DHT22;7466;53.574;9.976;2024-01-30T04:38:40;4.50;99.90
14749;DHT22;7466;53.574;9.976;2024-01-30T04:41:09;4.50;99.90
14749;DHT22;7466;53.574;9.976;2024-01-30T04:43:36;4.50;99.90
14749;DHT22;7466;53.574;9.976;2024-01-30T04:46:04;4.50;99.90
14749;DHT22;7466;53.574;9.976;2024-01-30T04:48:31;4.60;99.90
14749;DHT22;7466;53.574;9.976;2024-01-30T04:50:57;4.60;99.90
14749;DHT22;7466;53.574;9.976;2024-01-30T04:53:26;4.60;99.90
14749;DHT22;7466;53.574;9.976;2024-01-30T04:55:54;4.60;99.90
14749;DHT22;7466;53.574;9.976;2024-01-30T04:58:21;4.60;99.90
14749;DHT22;7466;53.574;9.976;2024-01-30T05:00:48;4.60;99.90
14749;DHT22;7466;53.574;9.976;2024-01-30T05:03:17;4.60;99.90
14749;DHT22;7466;53.574;9.976;2024-01-30T05:05:44;4.60;99.90
14749;DHT22;7466;53.574;9.976;2024-01-30T05:08:10;4.50;99.90
14749;DHT22;7466;53.574;9.976;2024-01-30T05:10:37;4.60;99.90
14749;DHT22;7466;53.574;9.976;2024-01-30T05:13:05;4.50;99.90
14749;DHT22;7466;53.574;9.976;2024-01-30T05:15:32;4.50;99.90
14749;DHT22;7466;53.574;9.976;2024-01-30T05:17:59;4.50;99.90
14749;DHT22;7466;53.574;9.976;2024-01-30T05:20:26;4.50;99.90
14749;DHT22;7466;53.574;9.976;2024-01-30T05:22:53;4.50;99.90
14749;DHT22;7466;53.574;9.976;2024-01-30T05:25:20;4.60;99.90
14749;DHT22;7466;53.574;9.976;2024-01-30T05:27:47;4.70;99.90
14749;DHT22;7466;53.574;9.976;2024-01-30T05:30:15;4.70;99.90
14749;DHT22;7466;53.574;9.976;2024-01-30T05:32:43;4.70;99.90
14749;DHT22;7466;53.574;9.976;2024-01-30T05:35:10;4.70;99.90
14749;DHT22;7466;53.574;9.976;2024-01-30T05:37:39;4.70;99.90
14749;DHT22;7466;53.574;9.976;2024-01-30T05:40:07;4.70;99.90
14749;DHT22;7466;53.574;9.976;2024-01-30T05:42:34;4.70;99.90
14749;DHT22;7466;53.574;9.976;2024-01-30T05:45:01;4.70;99.90
14749;DHT22;7466;53.574;9.976;2024-01-30T05:47:29;4.70;99.90
14749;DHT22;7466;53.574;9.976;2024-01-30T05:49:56;4.70;99.90
14749;DHT22;7466;53.574;9.976;2024-01-30T05:52:23;4.70;99.90
14749;DHT22;7466;53.574;9.976;2024-01-30T05:54:50;4.70;99.90
14749;DHT22;7466;53.574;9.976;2024-01-30T05:57:17;4.70;99.90
14749;DHT22;7466;53.574;9.976;2024-01-30T05:59:45;4.70;99.90
14749;DHT22;7466;53.574;9.976;2024-01-30T06:02:13;4.70;99.90
14749;DHT22;7466;53.574;9.976;2024-01-30T06:04:41;4.70;99.90
14749;DHT22;7466;53.574;9.976;2024-01-30T06:07:08;4.70;99.90
14749;DHT22;7466;53.574;9.976;2024-01-30T06:09:35;4.80;99.90
14749;DHT22;7466;53.574;9.976;2024-01-30T06:12:04;4.80;99.90
14749;DHT22;7466;53.574;9.976;2024-01-30T06:14:31;4.80;99.90
14749;DHT22;7466;53.574;9.976;2024-01-30T06:17:00;4.80;99.90
14749;DHT22;7466;53.574;9.976;2024-01-30T06:19:26;4.80;99.90
14749;DHT22;7466;53.574;9.976;2024-01-30T06:21:54;4.90;99.90
14749;DHT22;7466;53.574;9.976;2024-01-30T06:24:23;5.00;99.90
14749;DHT22;7466;53.574;9.976;2024-01-30T06:26:51;5.00;99.90
14749;DHT22;7466;53.574;9.976;2024-01-30T06:29:18;5.00;99.90
14749;DHT22;7466;53.574;9.976;2024-01-30T06:31:46;5.10;99.90
14749;DHT22;7466;53.574;9.976;2024-01-30T06:34:13;5.20;99.90
14749;DHT22;7466;53.574;9.976;2024-01-30T06:36:39;5.20;99.90
14749;DHT22;7466;53.574;9.976;2024-01-30T06:39:08;5.20;99.90
14749;DHT22;7466;53.574;9.976;2024-01-30T06:41:34;5.20;99.90
14749;DHT22;7466;53.574;9.976;2024-01-30T06:44:02;5.30;99.90
14749;DHT22;7466;53.574;9.976;2024-01-30T06:46:31;5.20;99.90
14749;DHT22;7466;53.574;9.976;2024-01-30T06:48:58;5.30;99.90
14749;DHT22;7466;53.574;9.976;2024-01-30T06:51:25;5.30;99.90
14749;DHT22;7466;53.574;9.976;2024-01-30T06:53:52;5.30;99.90
14749;DHT22;7466;53.574;9.976;2024-01-30T06:56:20;5.30;99.90
14749;DHT22;7466;53.574;9.976;2024-01-30T06:58:47;5.30;99.90
14749;DHT22;7466;53.574;9.976;2024-01-30T07:01:14;5.30;99.90
14749;DHT22;7466;53.574;9.976;2024-01-30T07:03:41;5.30;99.90
14749;DHT22;7466;53.574;9.976;2024-01-30T07:06:08;5.30;99.90
14749;DHT22;7466;53.574;9.976;2024-01-30T07:08:36;5.20;99.90
14749;DHT22;7466;53.574;9.976;2024-01-30T07:11:04;5.20;99.90
14749;DHT22;7466;53.574;9.976;2024-01-30T07:13:33;5.20;99.90
14749;DHT22;7466;53.574;9.976;2024-01-30T07:16:00;5.20;99.90
14749;DHT22;7466;53.574;9.976;2024-01-30T07:18:27;5.20;99.90
14749;DHT22;7466;53.574;9.976;2024-01-30T07:20:54;5.20;99.90
14749;DHT22;7466;53.574;9.976;2024-01-30T07:23:21;5.20;99.90
14749;DHT22;7466;53.574;9.976;2024-01-30T07:25:48;5.20;99.90
14749;DHT22;7466;53.574;9.976;2024-01-30T07:28:15;5.30;99.90
14749;DHT22;7466;53.574;9.976;2024-01-30T07:30:44;5.30;99.90
14749;DHT22;7466;53.574;9.976;2024-01-30T07:33:11;5.30;99.90
14749;DHT22;7466;53.574;9.976;2024-01-30T07:35:38;5.40;99.90
14749;DHT22;7466;53.574;9.976;2024-01-30T07:38:05;5.40;99.90
14749;DHT22;7466;53.574;9.976;2024-01-30T07:40:32;5.50;99.90
14749;DHT22;7466;53.574;9.976;2024-01-30T07:42:59;5.50;99.90
14749;DHT22;7466;53.574;9.976;2024-01-30T07:45:27;5.50;99.90
14749;DHT22;7466;53.574;9.976;2024-01-30T07:47:59;5.60;99.90
14749;DHT22;7466;53.574;9.976;2024-01-30T07:50:28;5.60;99.90
14749;DHT22;7466;53.574;9.976;2024-01-30T07:52:56;5.70;99.90
14749;DHT22;7466;53.574;9.976;2024-01-30T07:58:37;5.80;99.90
14749;DHT22;7466;53.574;9.976;2024-01-30T08:01:04;5.80;99.90
14749;DHT22;7466;53.574;9.976;2024-01-30T08:03:32;5.80;99.90
14749;DHT22;7466;53.574;9.976;2024-01-30T08:05:59;5.80;99.90
14749;DHT22;7466;53.574;9.976;2024-01-30T08:08:27;5.90;99.90
14749;DHT22;7466;53.574;9.976;2024-01-30T08:10:54;5.90;99.90
14749;DHT22;7466;53.574;9.976;2024-01-30T08:13:21;5.90;99.90
14749;DHT22;7466;53.574;9.976;2024-01-30T08:15:48;5.90;99.90
14749;DHT22;7466;53.574;9.976;2024-01-30T08:18:15;6.00;99.90
14749;DHT22;7466;53.574;9.976;2024-01-30T08:20:43;6.00;99.90
14749;DHT22;7466;53.574;9.976;2024-01-30T08:23:11;6.00;99.90
14749;DHT22;7466;53.574;9.976;2024-01-30T08:25:40;6.10;99.90
14749;DHT22;7466;53.574;9.976;2024-01-30T08:28:07;6.10;99.90
14749;DHT22;7466;53.574;9.976;2024-01-30T08:30:35;6.20;99.90
14749;DHT22;7466;53.574;9.976;2024-01-30T08:33:03;6.20;99.90
14749;DHT22;7466;53.574;9.976;2024-01-30T08:35:30;6.30;99.90
14749;DHT22;7466;53.574;9.976;2024-01-30T08:38:00;6.40;99.90
14749;DHT22;7466;53.574;9.976;2024-01-30T08:40:27;6.40;99.90
14749;DHT22;7466;53.574;9.976;2024-01-30T08:42:56;6.40;99.90
14749;DHT22;7466;53.574;9.976;2024-01-30T08:45:25;6.40;99.90
14749;DHT22;7466;53.574;9.976;2024-01-30T08:47:53;6.40;99.90
14749;DHT22;7466;53.574;9.976;2024-01-30T08:50:20;6.40;99.90
14749;DHT22;7466;53.574;9.976;2024-01-30T08:52:47;6.40;99.90
14749;DHT22;7466;53.574;9.976;2024-01-30T08:55:20;6.40;99.90
14749;DHT22;7466;53.574;9.976;2024-01-30T08:57:47;6.50;99.90
14749;DHT22;7466;53.574;9.976;2024-01-30T09:00:14;6.50;99.90
14749;DHT22;7466;53.574;9.976;2024-01-30T09:02:41;6.60;99.90
14749;DHT22;7466;53.574;9.976;2024-01-30T09:05:08;6.60;99.90
14749;DHT22;7466;53.574;9.976;2024-01-30T09:07:37;6.60;99.90
14749;DHT22;7466;53.574;9.976;2024-01-30T09:10:09;6.70;99.90
14749;DHT22;7466;53.574;9.976;2024-01-30T09:12:37;6.70;99.90
14749;DHT22;7466;53.574;9.976;2024-01-30T09:15:06;6.70;99.90
14749;DHT22;7466;53.574;9.976;2024-01-30T09:17:33;6.80;99.90
14749;DHT22;7466;53.574;9.976;2024-01-30T09:20:02;6.80;99.90
14749;DHT22;7466;53.574;9.976;2024-01-30T09:22:28;6.90;99.90
14749;DHT22;7466;53.574;9.976;2024-01-30T09:24:55;6.90;99.90
14749;DHT22;7466;53.574;9.976;2024-01-30T09:27:23;6.90;99.90
14749;DHT22;7466;53.574;9.976;2024-01-30T09:29:51;7.00;99.90
14749;DHT22;7466;53.574;9.976;2024-01-30T09:32:18;7.00;99.90
14749;DHT22;7466;53.574;9.976;2024-01-30T09:34:45;7.00;99.90
14749;DHT22;7466;53.574;9.976;2024-01-30T09:37:12;7.00;99.90
14749;DHT22;7466;53.574;9.976;2024-01-30T09:39:40;7.00;99.90
14749;DHT22;7466;53.574;9.976;2024-01-30T09:42:19;6.90;99.90
14749;DHT22;7466;53.574;9.976;2024-01-30T09:44:52;6.90;99.90
14749;DHT22;7466;53.574;9.976;2024-01-30T09:47:21;6.90;99.90
14749;DHT22;7466;53.574;9.976;2024-01-30T09:49:49;7.00;99.90
14749;DHT22;7466;53.574;9.976;2024-01-30T09:52:18;7.00;99.90
14749;DHT22;7466;53.574;9.976;2024-01-30T09:54:47;7.00;99.90
14749;DHT22;7466;53.574;9.976;2024-01-30T09:57:22;7.00;99.90
14749;DHT22;7466;53.574;9.976;2024-01-30T09:59:55;7.00;99.90
14749;DHT22;7466;53.574;9.976;2024-01-30T10:02:25;7.10;99.90
14749;DHT22;7466;53.574;9.976;2024-01-30T10:04:52;7.20;99.90
14749;DHT22;7466;53.574;9.976;2024-01-30T10:07:19;7.30;99.90
14749;DHT22;7466;53.574;9.976;2024-01-30T10:09:47;7.30;99.90
14749;DHT22;7466;53.574;9.976;2024-01-30T10:12:15;7.40;99.90
14749;DHT22;7466;53.574;9.976;2024-01-30T10:14:42;7.40;99.90
14749;DHT22;7466;53.574;9.976;2024-01-30T10:17:11;7.60;99.90
14749;DHT22;7466;53.574;9.976;2024-01-30T10:19:39;7.70;99.90
14749;DHT22;7466;53.574;9.976;2024-01-30T10:22:07;7.80;99.90
14749;DHT22;7466;53.574;9.976;2024-01-30T10:24:33;7.70;99.90
14749;DHT22;7466;53.574;9.976;2024-01-30T10:27:00;7.70;99.90
14749;DHT22;7466;53.574;9.976;2024-01-30T10:29:28;7.80;99.90
14749;DHT22;7466;53.574;9.976;2024-01-30T10:31:58;7.80;99.90
14749;DHT22;7466;53.574;9.976;2024-01-30T10:34:27;7.90;99.90
14749;DHT22;7466;53.574;9.976;2024-01-30T10:37:01;8.00;99.90
14749;DHT22;7466;53.574;9.976;2024-01-30T10:39:32;8.10;99.90
14749;DHT22;7466;53.574;9.976;2024-01-30T10:42:04;8.20;99.90
14749;DHT22;7466;53.574;9.976;2024-01-30T10:44:37;8.30;99.90
14749;DHT22;7466;53.574;9.976;2024-01-30T10:47:11;8.40;99.90
14749;DHT22;7466;53.574;9.976;2024-01-30T10:49:41;8.50;99.90
14749;DHT22;7466;53.574;9.976;2024-01-30T10:52:10;8.40;99.90
14749;DHT22;7466;53.574;9.976;2024-01-30T10:54:40;8.40;99.90
14749;DHT22;7466;53.574;9.976;2024-01-30T10:57:11;8.50;99.90
14749;DHT22;7466;53.574;9.976;2024-01-30T10:59:41;8.50;99.90
14749;DHT22;7466;53.574;9.976;2024-01-30T11:02:11;8.50;99.90
14749;DHT22;7466;53.574;9.976;2024-01-30T11:04:42;8.50;99.90
14749;DHT22;7466;53.574;9.976;2024-01-30T11:07:15;8.60;99.90
14749;DHT22;7466;53.574;9.976;2024-01-30T11:09:48;8.50;99.90
14749;DHT22;7466;53.574;9.976;2024-01-30T11:12:16;8.50;99.90
14749;DHT22;7466;53.574;9.976;2024-01-30T11:14:46;8.60;99.90
14749;DHT22;7466;53.574;9.976;2024-01-30T11:17:13;8.70;99.90
14749;DHT22;7466;53.574;9.976;2024-01-30T11:19:42;8.70;99.90
14749;DHT22;7466;53.574;9.976;2024-01-30T11:22:11;8.70;99.90
14749;DHT22;7466;53.574;9.976;2024-01-30T11:24:39;8.70;99.90
14749;DHT22;7466;53.574;9.976;2024-01-30T11:27:14;8.80;99.90
14749;DHT22;7466;53.574;9.976;2024-01-30T11:29:43;8.80;99.90
14749;DHT22;7466;53.574;9.976;2024-01-30T11:32:22;8.90;99.90
14749;DHT22;7466;53.574;9.976;2024-01-30T11:34:51;8.90;99.90
14749;DHT22;7466;53.574;9.976;2024-01-30T11:37:20;8.90;99.90
14749;DHT22;7466;53.574;9.976;2024-01-30T11:39:51;9.00;99.90
14749;DHT22;7466;53.574;9.976;2024-01-30T11:42:18;8.90;99.90
14749;DHT22;7466;53.574;9.976;2024-01-30T11:44:49;8.90;99.90
14749;DHT22;7466;53.574;9.976;2024-01-30T11:47:16;8.90;99.90
14749;DHT22;7466;53.574;9.976;2024-01-30T11:49:43;8.90;99.90
14749;DHT22;7466;53.574;9.976;2024-01-30T11:52:12;9.00;99.90
14749;DHT22;7466;53.574;9.976;2024-01-30T11:54:39;9.00;99.90
14749;DHT22;7466;53.574;9.976;2024-01-30T11:57:06;9.10;99.90
14749;DHT22;7466;53.574;9.976;2024-01-30T11:59:33;9.20;99.90
14749;DHT22;7466;53.574;9.976;2024-01-30T12:02:00;9.20;99.90
14749;DHT22;7466;53.574;9.976;2024-01-30T12:04:28;9.20;99.90
14749;DHT22;7466;53.574;9.976;2024-01-30T12:06:56;9.20;99.90
14749;DHT22;7466;53.574;9.976;2024-01-30T12:09:24;9.30;99.90
14749;DHT22;7466;53.574;9.976;2024-01-30T12:11:53;9.30;99.90
14749;DHT22;7466;53.574;9.976;2024-01-30T12:14:20;9.40;99.90
14749;DHT22;7466;53.574;9.976;2024-01-30T12:16:51;9.40;99.90
14749;DHT22;7466;53.574;9.976;2024-01-30T12:19:22;9.50;99.90
14749;DHT22;7466;53.574;9.976;2024-01-30T12:21:54;9.50;99.90
14749;DHT22;7466;53.574;9.976;2024-01-30T12:24:21;9.60;99.90
14749;DHT22;7466;53.574;9.976;2024-01-30T12:26:50;9.60;99.90
14749;DHT22;7466;53.574;9.976;2024-01-30T12:29:17;9.60;99.90
14749;DHT22;7466;53.574;9.976;2024-01-30T12:31:44;9.70;99.90
14749;DHT22;7466;53.574;9.976;2024-01-30T12:34:14;9.70;99.90
14749;DHT22;7466;53.574;9.976;2024-01-30T12:36:41;9.70;99.90
14749;DHT22;7466;53.574;9.976;2024-01-30T12:39:11;9.70;99.90
14749;DHT22;7466;53.574;9.976;2024-01-30T12:41:38;9.80;99.90
14749;DHT22;7466;53.574;9.976;2024-01-30T12:44:07;9.80;99.90
14749;DHT22;7466;53.574;9.976;2024-01-30T12:46:34;9.80;99.90
14749;DHT22;7466;53.574;9.976;2024-01-30T12:49:01;9.80;99.90
14749;DHT22;7466;53.574;9.976;2024-01-30T12:51:28;9.80;99.90
14749;DHT22;7466;53.574;9.976;2024-01-30T12:53:55;9.80;99.90
14749;DHT22;7466;53.574;9.976;2024-01-30T12:56:22;9.80;99.90
14749;DHT22;7466;53.574;9.976;2024-01-30T12:58:49;9.80;99.90
14749;DHT22;7466;53.574;9.976;2024-01-30T13:01:19;9.70;99.90
14749;DHT22;7466;53.574;9.976;2024-01-30T13:03:46;9.70;99.90
14749;DHT22;7466;53.574;9.976;2024-01-30T13:06:13;9.70;99.90
14749;DHT22;7466;53.574;9.976;2024-01-30T13:08:40;9.70;99.90
14749;DHT22;7466;53.574;9.976;2024-01-30T13:11:08;9.70;99.90
14749;DHT22;7466;53.574;9.976;2024-01-30T13:13:37;9.70;99.90
14749;DHT22;7466;53.574;9.976;2024-01-30T13:16:05;9.70;99.90
14749;DHT22;7466;53.574;9.976;2024-01-30T13:18:33;9.70;99.90
14749;DHT22;7466;53.574;9.976;2024-01-30T13:21:00;9.70;99.90
14749;DHT22;7466;53.574;9.976;2024-01-30T13:23:30;9.70;99.90
14749;DHT22;7466;53.574;9.976;2024-01-30T13:25:57;9.60;99.90
14749;DHT22;7466;53.574;9.976;2024-01-30T13:28:24;9.70;99.90
14749;DHT22;7466;53.574;9.976;2024-01-30T13:30:52;9.60;99.90
14749;DHT22;7466;53.574;9.976;2024-01-30T13:33:19;9.70;99.90
14749;DHT22;7466;53.574;9.976;2024-01-30T13:35:47;9.70;99.90
14749;DHT22;7466;53.574;9.976;2024-01-30T13:38:14;9.70;99.90
14749;DHT22;7466;53.574;9.976;2024-01-30T13:40:41;9.70;99.90
14749;DHT22;7466;53.574;9.976;2024-01-30T13:43:08;9.70;99.90
14749;DHT22;7466;53.574;9.976;2024-01-30T13:45:35;9.70;99.90
14749;DHT22;7466;53.574;9.976;2024-01-30T13:48:02;9.70;99.90
14749;DHT22;7466;53.574;9.976;2024-01-30T13:50:29;9.70;99.90
14749;DHT22;7466;53.574;9.976;2024-01-30T13:53:00;9.70;99.90
14749;DHT22;7466;53.574;9.976;2024-01-30T13:55:26;9.70;99.90
14749;DHT22;7466;53.574;9.976;2024-01-30T13:57:53;9.80;99.90
14749;DHT22;7466;53.574;9.976;2024-01-30T14:00:21;9.80;99.90
14749;DHT22;7466;53.574;9.976;2024-01-30T14:02:48;9.80;99.90
14749;DHT22;7466;53.574;9.976;2024-01-30T14:05:15;9.80;99.90
14749;DHT22;7466;53.574;9.976;2024-01-30T14:07:43;9.80;99.90
14749;DHT22;7466;53.574;9.976;2024-01-30T14:10:12;9.80;99.90
14749;DHT22;7466;53.574;9.976;2024-01-30T14:12:39;9.90;99.90
14749;DHT22;7466;53.574;9.976;2024-01-30T14:15:08;9.90;99.90
14749;DHT22;7466;53.574;9.976;2024-01-30T14:17:35;9.90;99.90
14749;DHT22;7466;53.574;9.976;2024-01-30T14:20:03;9.90;99.90
14749;DHT22;7466;53.574;9.976;2024-01-30T14:22:31;10.00;99.90
14749;DHT22;7466;53.574;9.976;2024-01-30T14:24:59;10.00;99.90
14749;DHT22;7466;53.574;9.976;2024-01-30T14:27:27;10.00;99.90
14749;DHT22;7466;53.574;9.976;2024-01-30T14:29:55;10.00;99.90
14749;DHT22;7466;53.574;9.976;2024-01-30T14:32:22;10.00;99.90
14749;DHT22;7466;53.574;9.976;2024-01-30T14:34:49;10.00;99.90
14749;DHT22;7466;53.574;9.976;2024-01-30T14:37:16;10.10;99.90
14749;DHT22;7466;53.574;9.976;2024-01-30T14:39:42;10.10;99.90
14749;DHT22;7466;53.574;9.976;2024-01-30T14:42:10;10.10;99.90
14749;DHT22;7466;53.574;9.976;2024-01-30T14:44:41;10.10;99.90
14749;DHT22;7466;53.574;9.976;2024-01-30T14:47:08;10.10;99.90
14749;DHT22;7466;53.574;9.976;2024-01-30T14:49:35;10.10;99.90
14749;DHT22;7466;53.574;9.976;2024-01-30T14:52:02;10.10;99.90
14749;DHT22;7466;53.574;9.976;2024-01-30T14:54:30;10.20;99.90
14749;DHT22;7466;53.574;9.976;2024-01-30T14:56:57;10.20;99.90
14749;DHT22;7466;53.574;9.976;2024-01-30T14:59:25;10.20;99.90
14749;DHT22;7466;53.574;9.976;2024-01-30T15:01:53;10.20;99.90
14749;DHT22;7466;53.574;9.976;2024-01-30T15:04:20;10.20;99.90
14749;DHT22;7466;53.574;9.976;2024-01-30T15:06:46;10.20;99.90
14749;DHT22;7466;53.574;9.976;2024-01-30T15:09:13;10.20;99.90
14749;DHT22;7466;53.574;9.976;2024-01-30T15:11:41;10.20;99.90
14749;DHT22;7466;53.574;9.976;2024-01-30T15:14:08;10.20;99.90
14749;DHT22;7466;53.574;9.976;2024-01-30T15:16:37;10.20;99.90
14749;DHT22;7466;53.574;9.976;2024-01-30T15:19:06;10.20;99.90
14749;DHT22;7466;53.574;9.976;2024-01-30T15:21:33;10.20;99.90
14749;DHT22;7466;53.574;9.976;2024-01-30T15:24:00;10.20;99.90
14749;DHT22;7466;53.574;9.976;2024-01-30T15:26:27;10.20;99.90
14749;DHT22;7466;53.574;9.976;2024-01-30T15:28:54;10.30;99.90
14749;DHT22;7466;53.574;9.976;2024-01-30T15:31:21;10.30;99.90
14749;DHT22;7466;53.574;9.976;2024-01-30T15:33:48;10.30;99.90
14749;DHT22;7466;53.574;9.976;2024-01-30T15:36:17;10.20;99.90
14749;DHT22;7466;53.574;9.976;2024-01-30T15:38:44;10.30;99.90
14749;DHT22;7466;53.574;9.976;2024-01-30T15:41:11;10.30;99.90
14749;DHT22;7466;53.574;9.976;2024-01-30T15:43:38;10.30;99.90
14749;DHT22;7466;53.574;9.976;2024-01-30T15:46:04;10.30;99.90
14749;DHT22;7466;53.574;9.976;2024-01-30T15:48:31;10.30;99.90
14749;DHT22;7466;53.574;9.976;2024-01-30T15:50:58;10.30;99.90
14749;DHT22;7466;53.574;9.976;2024-01-30T15:53:27;10.30;99.90
14749;DHT22;7466;53.574;9.976;2024-01-30T15:55:54;10.30;99.90
14749;DHT22;7466;53.574;9.976;2024-01-30T15:58:21;10.30;99.90
14749;DHT22;7466;53.574;9.976;2024-01-30T16:00:48;10.20;99.90
14749;DHT22;7466;53.574;9.976;2024-01-30T16:03:15;10.20;99.90
14749;DHT22;7466;53.574;9.976;2024-01-30T16:05:44;10.30;99.90